Time;durP1;ratioP1;P1;durP2;ratioP2;P2;SDS_P1;SDS_P2;PMS_P1;PMS_P2;Temp;Humidity;BMP_temperature;BMP_pressure;BME280_temperature;BME280_humidity;BME280_pressure;Samples;Min_cycle;Max_cycle;Signal;HPM_P1;HPM_P2
2022/10/21 00:02:07;;;;;;;11.70;5.25;;;;;;;5.38;100.00;99518.41;4501513;31;20462;-69
2022/10/21 00:04:34;;;;;;;14.93;5.60;;;;;;;5.43;100.00;99518.16;4501686;31;20108;-69
2022/10/21 00:07:01;;;;;;;7.82;4.95;;;;;;;5.44;100.00;99515.47;4499585;31;20461;-69
2022/10/21 00:09:28;;;;;;;7.53;4.55;;;;;;;5.44;100.00;99505.06;4485805;32;20620;-69
2022/10/21 00:11:56;;;;;;;11.88;5.18;;;;;;;5.46;100.00;99513.63;4485998;32;20124;-69
2022/10/21 00:14:23;;;;;;;13.35;5.22;;;;;;;5.47;100.00;99511.88;4485731;32;21023;-69
2022/10/21 00:16:50;;;;;;;8.80;5.55;;;;;;;5.46;100.00;99511.00;4485760;32;20491;-69
2022/10/21 00:19:17;;;;;;;11.20;4.80;;;;;;;5.44;100.00;99505.06;4486008;31;20092;-69
2022/10/21 00:21:44;;;;;;;8.30;5.00;;;;;;;5.45;100.00;99503.31;4485808;32;20097;-69
2022/10/21 00:24:11;;;;;;;10.23;4.57;;;;;;;5.48;100.00;99501.38;4485650;32;20497;-69
2022/10/21 00:26:38;;;;;;;11.18;5.03;;;;;;;5.51;100.00;99498.63;4485536;31;20120;-69
2022/10/21 00:29:05;;;;;;;8.25;4.70;;;;;;;5.45;100.00;99493.78;4485417;32;20108;-69
2022/10/21 00:31:33;;;;;;;8.80;4.32;;;;;;;5.39;100.00;99486.31;4485563;32;20136;-69
2022/10/21 00:34:00;;;;;;;7.85;4.43;;;;;;;5.50;100.00;99496.94;4484043;32;20607;-69
2022/10/21 00:36:28;;;;;;;11.50;4.43;;;;;;;5.50;100.00;99491.75;4485582;32;20105;-69
2022/10/21 00:38:55;;;;;;;8.55;4.12;;;;;;;5.54;100.00;99486.38;4485482;32;20160;-69
2022/10/21 00:41:23;;;;;;;8.93;4.62;;;;;;;5.47;100.00;99483.28;4485691;31;20096;-69
2022/10/21 00:44:02;;;;;;;10.73;4.75;;;;;;;5.50;100.00;99478.75;4485621;31;20088;-69
2022/10/21 00:46:38;;;;;;;9.13;4.82;;;;;;;5.51;100.00;99482.16;4485144;31;20131;-69
2022/10/21 00:49:47;;;;;;;8.27;4.43;;;;;;;5.42;100.00;99478.34;4485564;31;20432;-69
2022/10/21 00:52:18;;;;;;;7.97;4.53;;;;;;;5.57;100.00;99475.78;4485534;32;20135;-69
2022/10/21 00:54:46;;;;;;;11.88;4.60;;;;;;;5.44;100.00;99471.28;4470859;32;20104;-69
2022/10/21 00:57:14;;;;;;;7.40;4.47;;;;;;;5.40;100.00;99471.56;4485353;31;20168;-69
2022/10/21 00:59:49;;;;;;;10.68;4.62;;;;;;;5.35;100.00;99466.63;4483903;32;20160;-69
2022/10/21 01:02:17;;;;;;;8.82;4.28;;;;;;;5.35;100.00;99471.81;4484129;32;20110;-69
2022/10/21 01:04:44;;;;;;;14.35;5.47;;;;;;;5.47;100.00;99470.28;4483907;32;20153;-70
2022/10/21 01:07:12;;;;;;;6.90;4.70;;;;;;;5.43;100.00;99469.63;4488692;31;20121;-69
2022/10/21 01:09:39;;;;;;;7.18;4.22;;;;;;;5.42;100.00;99462.75;4501115;31;20115;-69
2022/10/21 01:12:17;;;;;;;9.30;5.18;;;;;;;5.39;100.00;99462.94;4501169;31;20187;-69
2022/10/21 01:14:55;;;;;;;7.90;4.20;;;;;;;5.42;100.00;99457.56;4499621;31;20148;-70
2022/10/21 01:17:49;;;;;;;7.25;4.20;;;;;;;5.37;100.00;99458.75;4500018;31;20118;-69
2022/10/21 01:21:10;;;;;;;8.45;4.20;;;;;;;5.35;100.00;99450.22;4499916;31;20139;-70
2022/10/21 01:23:55;;;;;;;6.35;3.45;;;;;;;5.38;100.00;99455.22;4410413;32;20376;-69
2022/10/21 01:26:41;;;;;;;8.00;4.07;;;;;;;5.42;100.00;99454.97;4435937;32;20177;-69
2022/10/21 01:29:16;;;;;;;7.05;3.45;;;;;;;5.53;100.00;99446.56;4435966;32;20113;-69
2022/10/21 01:31:56;;;;;;;11.32;4.50;;;;;;;5.50;100.00;99447.56;4435921;32;20223;-69
2022/10/21 01:34:36;;;;;;;8.80;3.92;;;;;;;5.43;100.00;99448.81;4423300;32;20595;-70
2022/10/21 01:37:12;;;;;;;8.48;3.58;;;;;;;5.43;100.00;99442.81;4423318;32;20160;-69
2022/10/21 01:39:40;;;;;;;9.27;3.70;;;;;;;5.41;100.00;99440.28;4423235;32;20134;-70
2022/10/21 01:42:24;;;;;;;7.87;4.72;;;;;;;5.35;100.00;99430.25;4423162;32;20469;-69
2022/10/21 01:44:54;;;;;;;6.93;3.80;;;;;;;5.30;100.00;99419.28;4423076;32;20154;-69
2022/10/21 01:47:28;;;;;;;6.68;4.00;;;;;;;5.24;100.00;99417.03;4435947;32;20185;-69
2022/10/21 01:50:06;;;;;;;9.55;3.87;;;;;;;5.25;100.00;99422.13;4423243;32;20523;-70
2022/10/21 01:52:33;;;;;;;10.18;4.78;;;;;;;5.22;100.00;99421.47;4423258;32;20476;-70
2022/10/21 01:55:07;;;;;;;9.50;3.92;;;;;;;5.11;100.00;99425.50;4435324;32;20136;-69
2022/10/21 01:57:36;;;;;;;9.97;3.90;;;;;;;5.14;100.00;99435.72;4421962;32;20536;-69
2022/10/21 02:00:04;;;;;;;8.27;3.83;;;;;;;5.08;100.00;99436.06;4495021;31;20116;-69
2022/10/21 02:02:33;;;;;;;6.07;3.58;;;;;;;5.12;100.00;99434.16;4499803;31;20099;-69
2022/10/21 02:05:05;;;;;;;5.57;3.47;;;;;;;5.17;100.00;99431.31;4483511;32;20112;-69
2022/10/21 02:07:32;;;;;;;8.57;3.67;;;;;;;5.08;100.00;99428.28;4489089;31;20122;-69
2022/10/21 02:09:59;;;;;;;6.03;3.78;;;;;;;5.07;100.00;99424.03;4499305;31;20167;-69
2022/10/21 02:12:28;;;;;;;8.98;4.10;;;;;;;5.03;100.00;99426.88;4500423;31;20119;-70
2022/10/21 02:14:57;;;;;;;7.47;4.28;;;;;;;5.06;100.00;99431.91;4499073;31;20596;-69
2022/10/21 02:17:26;;;;;;;9.35;3.92;;;;;;;4.93;100.00;99447.31;4500432;31;20108;-69
2022/10/21 02:19:56;;;;;;;7.20;4.47;;;;;;;4.90;100.00;99444.87;4500503;31;20163;-69
2022/10/21 02:22:23;;;;;;;8.48;3.95;;;;;;;4.94;100.00;99430.81;4499100;31;20088;-69
2022/10/21 02:24:58;;;;;;;11.07;3.67;;;;;;;4.92;100.00;99425.72;4498886;31;20148;-69
2022/10/21 02:27:26;;;;;;;7.18;3.53;;;;;;;4.94;100.00;99431.66;4498893;31;20175;-69
2022/10/21 02:29:56;;;;;;;9.90;3.90;;;;;;;4.89;100.00;99438.00;4500195;31;20140;-70
2022/10/21 02:32:33;;;;;;;6.18;3.62;;;;;;;4.87;100.00;99445.88;4498952;31;20126;-69
2022/10/21 02:35:19;;;;;;;8.18;4.00;;;;;;;4.82;100.00;99442.72;4498875;31;20194;-69
2022/10/21 02:37:58;;;;;;;9.68;4.37;;;;;;;4.78;100.00;99430.81;4500252;31;20137;-69
2022/10/21 02:40:33;;;;;;;7.25;4.68;;;;;;;4.79;100.00;99422.94;4500210;31;20119;-69
2022/10/21 02:43:08;;;;;;;13.35;4.10;;;;;;;4.74;100.00;99419.78;4498832;31;20162;-69
2022/10/21 02:45:35;;;;;;;8.38;3.90;;;;;;;4.74;100.00;99419.78;4498848;31;20119;-69
2022/10/21 02:48:02;;;;;;;7.07;4.10;;;;;;;4.77;100.00;99424.81;4499986;31;20118;-69
2022/10/21 02:50:30;;;;;;;7.60;4.18;;;;;;;4.65;100.00;99427.22;4500364;31;20118;-69
2022/10/21 02:52:57;;;;;;;9.02;3.78;;;;;;;4.62;100.00;99410.91;4499880;31;20460;-69
2022/10/21 02:55:24;;;;;;;8.43;4.57;;;;;;;4.62;100.00;99417.84;4499647;31;20088;-69
2022/10/21 02:57:51;;;;;;;13.15;4.75;;;;;;;4.54;100.00;99418.28;4499487;31;20166;-69
2022/10/21 03:00:18;;;;;;;7.87;4.15;;;;;;;4.50;100.00;99419.34;4499669;31;20454;-69
2022/10/21 03:02:45;;;;;;;6.75;3.55;;;;;;;4.51;100.00;99418.44;4498313;31;20100;-69
2022/10/21 03:05:12;;;;;;;8.27;3.75;;;;;;;4.57;100.00;99427.63;4484246;31;20100;-69
2022/10/21 03:07:40;;;;;;;7.07;3.45;;;;;;;4.50;100.00;99431.50;4490350;31;20205;-69
2022/10/21 03:10:08;;;;;;;9.05;3.90;;;;;;;4.42;100.00;99427.53;4502024;31;20423;-69
2022/10/21 03:12:35;;;;;;;6.78;3.60;;;;;;;4.42;100.00;99427.53;4501917;31;20478;-69
2022/10/21 03:15:02;;;;;;;8.75;3.67;;;;;;;4.49;100.00;99425.44;4501771;31;20247;-69
2022/10/21 03:17:29;;;;;;;10.10;5.35;;;;;;;4.38;100.00;99428.63;4501849;31;20151;-69
2022/10/21 03:19:56;;;;;;;7.03;4.35;;;;;;;4.30;100.00;99428.19;4501871;31;20122;-69
2022/10/21 03:22:24;;;;;;;6.35;3.80;;;;;;;4.34;100.00;99426.28;4501763;31;20100;-69
2022/10/21 03:24:51;;;;;;;5.35;2.87;;;;;;;4.35;100.00;99423.59;4501818;31;20121;-69
2022/10/21 03:27:18;;;;;;;7.70;3.25;;;;;;;4.36;100.00;99420.09;4501481;31;20104;-69
2022/10/21 03:29:46;;;;;;;9.00;3.85;;;;;;;4.36;100.00;99401.94;4501812;31;20221;-69
2022/10/21 03:32:13;;;;;;;6.22;3.50;;;;;;;4.41;100.00;99399.09;4501667;31;20143;-69
2022/10/21 03:34:40;;;;;;;10.20;3.67;;;;;;;4.31;100.00;99409.09;4500568;31;20089;-69
2022/10/21 03:37:07;;;;;;;8.90;3.60;;;;;;;4.29;100.00;99408.34;4501716;31;20096;-69
2022/10/21 03:39:34;;;;;;;6.65;3.90;;;;;;;4.33;100.00;99404.69;4501774;31;20088;-69
2022/10/21 03:42:01;;;;;;;8.30;4.12;;;;;;;4.36;100.00;99407.13;4501725;31;20186;-69
2022/10/21 03:44:28;;;;;;;5.75;3.53;;;;;;;4.37;100.00;99398.41;4501822;31;20127;-69
2022/10/21 03:46:55;;;;;;;9.20;3.83;;;;;;;4.35;100.00;99395.06;4501549;31;20103;-69
2022/10/21 03:49:22;;;;;;;11.55;3.55;;;;;;;4.28;100.00;99393.72;4501807;31;20168;-69
2022/10/21 03:51:50;;;;;;;7.30;4.15;;;;;;;4.31;100.00;99390.94;4501826;31;20471;-69
2022/10/21 03:54:17;;;;;;;7.28;3.65;;;;;;;4.30;100.00;99383.25;4501558;31;20148;-69
2022/10/21 03:56:45;;;;;;;6.87;3.60;;;;;;;4.21;100.00;99389.75;4501468;31;20580;-69
2022/10/21 03:59:12;;;;;;;6.43;3.42;;;;;;;4.30;100.00;99384.09;4501458;31;20573;-69
2022/10/21 04:01:39;;;;;;;7.82;3.95;;;;;;;4.25;100.00;99381.75;4501604;31;20155;-69
2022/10/21 04:04:07;;;;;;;6.37;3.70;;;;;;;4.26;100.00;99382.59;4491082;31;20495;-69
2022/10/21 04:06:34;;;;;;;5.68;3.65;;;;;;;4.23;100.00;99374.97;4485649;31;20477;-69
2022/10/21 04:09:01;;;;;;;8.93;3.37;;;;;;;4.24;100.00;99368.87;4501053;31;20112;-69
2022/10/21 04:11:29;;;;;;;9.90;4.50;;;;;;;4.15;100.00;99374.53;4501391;31;20162;-69
2022/10/21 04:13:56;;;;;;;7.60;3.85;;;;;;;4.13;100.00;99372.00;4501344;31;20157;-69
2022/10/21 04:16:23;;;;;;;11.30;4.43;;;;;;;4.15;100.00;99366.75;4500469;31;20721;-70
2022/10/21 04:18:50;;;;;;;10.00;4.28;;;;;;;4.13;100.00;99366.81;4500448;31;20123;-70
2022/10/21 04:21:17;;;;;;;11.27;4.35;;;;;;;4.12;100.00;99369.50;4500766;31;20487;-70
2022/10/21 04:23:45;;;;;;;10.30;4.57;;;;;;;4.19;100.00;99376.87;4499444;31;20085;-70
2022/10/21 04:26:12;;;;;;;12.52;4.80;;;;;;;4.09;100.00;99375.72;4500254;31;20156;-69
2022/10/21 04:28:39;;;;;;;7.93;4.15;;;;;;;4.12;100.00;99370.38;4500730;31;20514;-69
2022/10/21 04:31:06;;;;;;;9.18;3.97;;;;;;;4.09;100.00;99367.94;4500845;31;20163;-70
2022/10/21 04:33:36;;;;;;;10.23;4.45;;;;;;;4.08;100.00;99356.69;4500091;31;20188;-69
2022/10/21 04:36:03;;;;;;;12.02;4.15;;;;;;;4.00;100.00;99351.09;4500285;31;20096;-69
2022/10/21 04:38:30;;;;;;;10.65;4.87;;;;;;;3.95;100.00;99347.06;4484710;31;20434;-70
2022/10/21 04:41:00;;;;;;;11.25;4.07;;;;;;;3.93;100.00;99349.75;4486606;31;20147;-70
2022/10/21 04:43:28;;;;;;;6.45;3.95;;;;;;;3.88;100.00;99338.78;4498294;31;20468;-70
2022/10/21 04:45:55;;;;;;;12.50;4.35;;;;;;;3.86;100.00;99338.00;4501410;31;20100;-70
2022/10/21 04:48:23;;;;;;;7.35;4.20;;;;;;;3.89;100.00;99340.44;4500936;31;20123;-70
2022/10/21 04:50:51;;;;;;;9.57;4.35;;;;;;;3.87;100.00;99342.28;4500105;31;20104;-70
2022/10/21 04:53:19;;;;;;;13.55;5.45;;;;;;;3.78;100.00;99343.59;4499245;31;20384;-70
2022/10/21 04:55:52;;;;;;;8.52;4.55;;;;;;;3.73;100.00;99343.84;4497737;31;20437;-70
2022/10/21 04:58:20;;;;;;;9.03;4.07;;;;;;;3.69;100.00;99338.91;4498980;31;20491;-70
2022/10/21 05:00:49;;;;;;;10.50;4.35;;;;;;;3.68;100.00;99347.56;4498382;31;20562;-70
2022/10/21 05:03:18;;;;;;;22.05;5.22;;;;;;;3.73;100.00;99341.25;4495012;31;20096;-70
2022/10/21 05:05:48;;;;;;;21.17;5.20;;;;;;;3.70;100.00;99341.41;4484596;31;20092;-70
2022/10/21 05:08:16;;;;;;;11.35;4.78;;;;;;;3.65;100.00;99342.56;4484506;31;20654;-70
2022/10/21 05:10:43;;;;;;;7.72;4.30;;;;;;;3.68;100.00;99330.31;4484746;31;20143;-70
2022/10/21 05:13:10;;;;;;;7.82;4.20;;;;;;;3.87;100.00;99329.34;4483371;32;20088;-70
2022/10/21 05:15:38;;;;;;;10.73;5.37;;;;;;;3.97;100.00;99324.50;4484195;31;20123;-70
2022/10/21 05:18:05;;;;;;;20.42;4.05;;;;;;;3.91;100.00;99330.84;4484864;31;20092;-70
2022/10/21 05:20:32;;;;;;;13.20;4.75;;;;;;;4.00;100.00;99329.53;4484696;31;20579;-69
2022/10/21 05:22:59;;;;;;;29.10;4.72;;;;;;;4.12;100.00;99331.47;4483542;32;20105;-69
2022/10/21 05:25:26;;;;;;;7.82;4.28;;;;;;;4.13;100.00;99342.66;4484806;31;20173;-69
2022/10/21 05:28:00;;;;;;;11.12;4.95;;;;;;;4.24;100.00;99340.34;4484430;31;20653;-69
2022/10/21 05:30:27;;;;;;;8.82;4.35;;;;;;;4.19;100.00;99339.75;4483846;31;20096;-69
2022/10/21 05:32:54;;;;;;;21.92;4.80;;;;;;;4.27;100.00;99342.78;4486338;31;21052;-69
2022/10/21 05:35:21;;;;;;;13.80;4.95;;;;;;;4.42;100.00;99341.94;4498778;31;20201;-69
2022/10/21 05:37:48;;;;;;;22.80;4.35;;;;;;;4.48;100.00;99350.28;4485634;31;20146;-70
2022/10/21 05:40:17;;;;;;;17.05;4.85;;;;;;;4.52;100.00;99346.63;4496812;31;20141;-69
2022/10/21 05:42:45;;;;;;;8.70;4.68;;;;;;;4.63;100.00;99344.25;4492613;31;20209;-69
2022/10/21 05:45:12;;;;;;;23.02;5.22;;;;;;;4.74;100.00;99339.31;4488785;31;20093;-70
2022/10/21 05:47:39;;;;;;;11.43;5.45;;;;;;;4.71;100.00;99330.84;4492828;31;20104;-69
2022/10/21 05:50:09;;;;;;;16.23;4.47;;;;;;;4.82;100.00;99306.91;4491416;31;20159;-69
2022/10/21 05:52:36;;;;;;;10.65;4.97;;;;;;;4.76;100.00;99310.69;4488975;31;20156;-70
2022/10/21 05:55:05;;;;;;;17.08;5.07;;;;;;;4.78;100.00;99324.41;4498322;31;20120;-68
2022/10/21 05:57:33;;;;;;;8.82;4.85;;;;;;;4.88;100.00;99348.91;4492071;31;84991;-68
2022/10/21 06:00:01;;;;;;;9.07;4.60;;;;;;;4.92;100.00;99359.94;4490026;31;20171;-67
2022/10/21 06:02:31;;;;;;;11.57;4.62;;;;;;;5.04;99.95;99366.22;4490876;31;20129;-69
2022/10/21 06:04:58;;;;;;;12.50;4.93;;;;;;;5.08;98.96;99357.34;4481543;31;20780;-69
2022/10/21 06:07:25;;;;;;;18.83;4.85;;;;;;;5.14;98.68;99365.59;4489988;31;20092;-69
2022/10/21 06:09:52;;;;;;;8.38;4.57;;;;;;;5.00;98.95;99375.09;4483330;31;20148;-70
2022/10/21 06:12:21;;;;;;;7.97;5.05;;;;;;;5.20;98.85;99373.97;4493513;31;20668;-70
2022/10/21 06:14:48;;;;;;;14.35;4.93;;;;;;;5.19;98.88;99385.28;4489909;31;20455;-70
2022/10/21 06:17:16;;;;;;;18.65;5.10;;;;;;;5.29;97.87;99373.44;4495173;31;20091;-68
2022/10/21 06:19:44;;;;;;;7.68;4.43;;;;;;;5.41;98.43;99370.13;4494482;31;20541;-69
2022/10/21 06:22:16;;;;;;;11.48;4.47;;;;;;;5.48;96.93;99379.25;4490749;31;20366;-70
2022/10/21 06:24:45;;;;;;;6.25;4.03;;;;;;;5.53;96.68;99378.13;4489592;31;20134;-70
2022/10/21 06:27:12;;;;;;;10.60;5.57;;;;;;;5.61;96.55;99388.94;4489370;31;20119;-70
2022/10/21 06:29:39;;;;;;;11.45;4.95;;;;;;;5.73;95.69;99397.78;4493558;31;20122;-70
2022/10/21 06:32:07;;;;;;;12.75;4.47;;;;;;;5.83;94.94;99401.50;4492383;31;20084;-70
2022/10/21 06:34:34;;;;;;;21.35;5.68;;;;;;;5.69;92.11;99403.16;4487268;31;21021;-70
2022/10/21 06:37:01;;;;;;;8.98;4.35;;;;;;;5.71;92.93;99403.06;4498590;31;20116;-71
2022/10/21 06:39:29;;;;;;;9.00;4.30;;;;;;;5.76;93.28;99382.00;4494919;31;20992;-70
2022/10/21 06:41:56;;;;;;;16.10;4.65;;;;;;;5.93;92.82;99376.59;4490198;31;20080;-70
2022/10/21 06:44:23;;;;;;;7.35;3.65;;;;;;;5.98;93.63;99385.00;4493796;31;20149;-69
2022/10/21 06:46:52;;;;;;;9.88;4.20;;;;;;;6.06;89.47;99376.72;4495024;31;20160;-69
2022/10/21 06:49:20;;;;;;;25.70;4.70;;;;;;;6.20;91.63;99371.50;4497043;31;20126;-69
2022/10/21 06:51:47;;;;;;;8.55;4.30;;;;;;;6.13;90.04;99369.37;4496997;31;20121;-69
2022/10/21 06:54:15;;;;;;;12.02;4.28;;;;;;;6.38;90.48;99369.53;4494346;31;20477;-69
2022/10/21 06:56:42;;;;;;;7.95;4.40;;;;;;;6.49;89.05;99381.06;4487647;31;20118;-69
2022/10/21 06:59:09;;;;;;;7.50;3.95;;;;;;;6.72;88.40;99369.19;4494686;31;20132;-68
2022/10/21 07:01:39;;;;;;;7.57;4.32;;;;;;;6.88;87.47;99376.84;4490958;31;20115;-70
2022/10/21 07:04:29;;;;;;;8.63;4.30;;;;;;;6.88;87.13;99369.88;4496446;31;20104;-69
2022/10/21 07:06:57;;;;;;;8.90;4.45;;;;;;;6.89;85.02;99368.94;4494266;31;20118;-69
2022/10/21 07:09:24;;;;;;;9.93;4.35;;;;;;;6.95;86.07;99372.06;4493629;31;20114;-69
2022/10/21 07:11:52;;;;;;;13.07;4.70;;;;;;;7.07;85.04;99382.56;4495319;31;20092;-70
2022/10/21 07:14:21;;;;;;;8.15;4.03;;;;;;;7.21;83.98;99373.84;4488363;31;20123;-69
2022/10/21 07:16:50;;;;;;;11.30;4.82;;;;;;;7.33;84.71;99377.41;4492024;31;20655;-69
2022/10/21 07:19:17;;;;;;;9.45;4.57;;;;;;;7.56;83.46;99372.44;4478736;31;20147;-69
2022/10/21 07:21:45;;;;;;;12.80;4.78;;;;;;;7.63;83.49;99379.75;4493126;31;20147;-69
2022/10/21 07:24:12;;;;;;;7.72;4.03;;;;;;;7.74;82.33;99386.00;4495014;31;20480;-69
2022/10/21 07:26:42;;;;;;;11.00;4.57;;;;;;;7.81;81.90;99382.88;4493909;31;20131;-69
2022/10/21 07:29:09;;;;;;;7.97;4.57;;;;;;;7.74;82.16;99393.84;4486050;31;20120;-69
2022/10/21 07:31:37;;;;;;;6.40;4.40;;;;;;;7.74;81.25;99388.63;4490937;31;20114;-69
2022/10/21 07:34:07;;;;;;;12.40;4.12;;;;;;;7.76;81.84;99405.00;4491352;31;20100;-69
2022/10/21 07:36:37;;;;;;;11.23;5.10;;;;;;;7.73;82.35;99415.63;4495724;31;20758;-69
2022/10/21 07:39:08;;;;;;;8.95;3.67;;;;;;;7.67;81.53;99403.81;4491827;31;20084;-69
2022/10/21 07:41:39;;;;;;;8.88;4.00;;;;;;;7.54;81.59;99398.59;4490314;31;20147;-70
2022/10/21 07:44:07;;;;;;;7.93;3.85;;;;;;;7.48;81.64;99386.00;4490303;31;20145;-69
2022/10/21 07:46:36;;;;;;;17.12;4.75;;;;;;;7.40;82.32;99383.87;4492568;31;20172;-69
2022/10/21 07:49:03;;;;;;;9.32;3.90;;;;;;;7.54;82.81;99379.50;4495639;31;20103;-69
2022/10/21 07:51:31;;;;;;;8.27;4.35;;;;;;;7.50;83.28;99383.28;4492553;31;20106;-69
2022/10/21 07:53:59;;;;;;;7.40;4.40;;;;;;;7.52;82.42;99373.56;4497550;31;20095;-69
2022/10/21 07:56:29;;;;;;;9.73;3.92;;;;;;;7.54;81.14;99374.28;4494840;31;20093;-69
2022/10/21 07:58:57;;;;;;;9.32;4.90;;;;;;;7.62;81.93;99362.41;4482405;31;20517;-69
2022/10/21 08:01:24;;;;;;;7.28;3.65;;;;;;;7.63;82.67;99358.88;4494787;31;20139;-69
2022/10/21 08:03:53;;;;;;;21.12;4.07;;;;;;;7.72;81.12;99352.22;4489545;31;20108;-69
2022/10/21 08:06:22;;;;;;;13.77;4.78;;;;;;;7.86;82.19;99356.47;4486751;31;20115;-69
2022/10/21 08:08:49;;;;;;;5.82;3.47;;;;;;;7.81;80.25;99351.56;4498101;31;20553;-69
2022/10/21 08:11:28;;;;;;;10.50;4.30;;;;;;;7.95;79.13;99357.62;4497233;31;20152;-69
2022/10/21 08:13:55;;;;;;;7.35;3.83;;;;;;;8.12;80.38;99343.41;4489518;31;20516;-69
2022/10/21 08:16:26;;;;;;;7.60;4.22;;;;;;;8.05;79.57;99352.59;4490160;31;20132;-69
2022/10/21 08:18:53;;;;;;;19.02;4.43;;;;;;;8.05;78.18;99342.97;4495265;31;20100;-68
2022/10/21 08:21:20;;;;;;;11.60;3.17;;;;;;;8.27;77.88;99342.31;4490795;31;20108;-68
2022/10/21 08:23:47;;;;;;;5.53;3.55;;;;;;;8.40;78.91;99344.87;4495763;31;20116;-68
2022/10/21 08:26:15;;;;;;;10.65;4.18;;;;;;;8.44;77.50;99348.97;4494021;31;20553;-69
2022/10/21 08:28:42;;;;;;;12.23;4.60;;;;;;;8.68;79.32;99338.56;4495819;31;20540;-69
2022/10/21 08:31:15;;;;;;;9.25;3.90;;;;;;;8.74;78.41;99339.91;4492327;31;20139;-69
2022/10/21 08:33:43;;;;;;;10.95;3.83;;;;;;;8.85;78.34;99342.56;4492182;31;20130;-69
2022/10/21 08:36:16;;;;;;;11.12;4.30;;;;;;;9.06;75.66;99345.37;4498520;31;20445;-69
2022/10/21 08:38:43;;;;;;;13.45;4.53;;;;;;;9.19;76.52;99321.78;4498694;31;20390;-69
2022/10/21 08:41:50;;;;;;;11.70;4.40;;;;;;;9.24;77.56;99313.59;4494374;31;20487;-68
2022/10/21 08:44:40;;;;;;;11.12;4.43;;;;;;;9.19;76.74;99315.69;4430819;32;20139;-68
2022/10/21 08:47:14;;;;;;;10.50;3.85;;;;;;;9.29;77.35;99319.28;4427481;32;21057;-68
2022/10/21 08:49:52;;;;;;;10.63;4.85;;;;;;;8.95;77.30;99316.59;4426945;32;20539;-68
2022/10/21 08:52:26;;;;;;;14.07;4.78;;;;;;;9.22;77.89;99307.66;4426129;32;20203;-68
2022/10/21 08:54:59;;;;;;;9.85;3.45;;;;;;;9.46;77.47;99304.12;4411147;32;20117;-68
2022/10/21 08:57:27;;;;;;;14.25;4.43;;;;;;;9.44;75.69;99298.19;4418428;32;20495;-68
2022/10/21 08:59:54;;;;;;;14.35;5.07;;;;;;;9.37;75.78;99306.50;4414851;32;20531;-68
2022/10/21 09:02:39;;;;;;;6.47;3.87;;;;;;;9.56;76.88;99297.25;4420338;32;20106;-68
2022/10/21 09:05:48;;;;;;;8.93;4.82;;;;;;;9.66;74.80;99295.59;4407135;32;20122;-68
2022/10/21 09:08:24;;;;;;;12.85;4.28;;;;;;;9.56;75.32;99300.69;4382225;32;20180;-69
2022/10/21 09:11:02;;;;;;;15.13;4.30;;;;;;;9.76;74.96;99295.69;4387583;32;20114;-68
2022/10/21 09:13:47;;;;;;;6.43;3.97;;;;;;;9.67;73.40;99291.19;4370632;32;20194;-68
2022/10/21 09:16:46;;;;;;;16.65;4.60;;;;;;;9.82;74.57;99283.94;4384485;32;20162;-68
2022/10/21 09:19:25;;;;;;;9.15;3.58;;;;;;;9.82;74.55;99283.94;4340985;32;20183;-68
2022/10/21 09:22:27;;;;;;;9.77;4.40;;;;;;;10.04;73.23;99272.62;4362087;32;20593;-68
2022/10/21 09:25:24;;;;;;;15.68;4.32;;;;;;;10.05;73.75;99276.87;4367243;32;20098;-69
2022/10/21 09:27:52;;;;;;;8.23;3.80;;;;;;;10.00;74.08;99282.47;4364436;32;20162;-68
2022/10/21 09:30:24;;;;;;;13.35;4.18;;;;;;;9.89;72.08;99274.66;4368844;32;20111;-68
2022/10/21 09:32:57;;;;;;;9.30;3.35;;;;;;;10.06;73.56;99278.56;4370370;32;20177;-68
2022/10/21 09:35:47;;;;;;;16.98;3.75;;;;;;;10.20;71.00;99265.19;4369116;32;20098;-68
2022/10/21 09:38:26;;;;;;;7.75;3.70;;;;;;;10.32;72.06;99267.81;4364963;32;20735;-69
2022/10/21 09:40:58;;;;;;;14.63;4.28;;;;;;;10.39;71.68;99261.97;4353319;32;20252;-69
2022/10/21 09:43:26;;;;;;;5.87;3.65;;;;;;;10.36;71.47;99256.16;4360264;32;20110;-69
2022/10/21 09:45:53;;;;;;;7.45;4.00;;;;;;;10.39;72.57;99256.72;4409422;32;20112;-69
2022/10/21 09:48:50;;;;;;;20.50;4.30;;;;;;;10.47;70.97;99243.84;4435911;32;20128;-70
2022/10/21 09:51:39;;;;;;;19.52;4.70;;;;;;;10.37;71.08;99242.94;4387305;32;20210;-70
2022/10/21 09:54:24;;;;;;;13.98;5.35;;;;;;;10.30;73.72;99242.56;4388402;32;20132;-69
2022/10/21 09:56:59;;;;;;;14.52;4.80;;;;;;;10.68;72.21;99245.66;4419252;32;20128;-69
2022/10/21 09:59:27;;;;;;;11.25;4.40;;;;;;;10.60;71.11;99248.91;4435746;32;20166;-70
2022/10/21 10:02:07;;;;;;;12.27;4.05;;;;;;;10.73;70.38;99237.44;4447191;32;20188;-69
2022/10/21 10:04:35;;;;;;;9.80;4.55;;;;;;;10.69;71.65;99231.63;4424337;32;20092;-69
2022/10/21 10:07:18;;;;;;;9.65;3.62;;;;;;;10.61;71.81;99231.41;4436641;32;20192;-69
2022/10/21 10:09:47;;;;;;;7.78;4.40;;;;;;;10.80;70.69;99225.50;4447390;32;20690;-70
2022/10/21 10:12:19;;;;;;;8.38;4.35;;;;;;;10.82;70.20;99219.19;4441872;32;20830;-69
2022/10/21 10:14:46;;;;;;;7.18;4.20;;;;;;;10.97;70.05;99224.09;4432350;32;20620;-69
2022/10/21 10:17:16;;;;;;;13.10;4.53;;;;;;;11.02;70.32;99216.66;4424283;32;20102;-68
2022/10/21 10:20:03;;;;;;;6.22;3.87;;;;;;;11.48;69.78;99204.88;4445545;32;20132;-68
2022/10/21 10:22:42;;;;;;;11.68;3.58;;;;;;;11.57;67.81;99199.78;4440849;32;20515;-68
2022/10/21 10:25:17;;;;;;;19.05;4.18;;;;;;;11.40;66.92;99202.09;4442892;32;20132;-68
2022/10/21 10:28:16;;;;;;;12.80;3.55;;;;;;;11.56;67.69;99198.16;4470087;31;20205;-68
2022/10/21 10:30:47;;;;;;;9.52;3.28;;;;;;;11.89;66.85;99189.12;4490781;31;20091;-67
2022/10/21 10:33:18;;;;;;;7.75;4.75;;;;;;;11.87;65.55;99199.75;4494483;31;20109;-68
2022/10/21 10:35:51;;;;;;;13.77;4.15;;;;;;;11.78;66.37;99187.44;4490001;31;20101;-68
2022/10/21 10:38:34;;;;;;;14.57;4.28;;;;;;;11.93;65.21;99181.81;4483651;31;20462;-68
2022/10/21 10:41:08;;;;;;;8.35;4.18;;;;;;;11.81;64.52;99186.31;4488596;31;20130;-67
2022/10/21 10:43:44;;;;;;;15.05;4.30;;;;;;;11.71;66.79;99178.44;4490486;31;20615;-67
2022/10/21 10:46:27;;;;;;;11.70;3.58;;;;;;;11.67;66.66;99167.38;4487997;31;20089;-67
2022/10/21 10:48:57;;;;;;;7.60;3.35;;;;;;;11.59;64.62;99167.22;4484822;31;20123;-68
2022/10/21 10:51:32;;;;;;;10.73;4.10;;;;;;;11.66;65.70;99164.91;4489891;31;20108;-67
2022/10/21 10:54:05;;;;;;;11.55;3.62;;;;;;;11.77;66.99;99159.53;4488881;31;20556;-67
2022/10/21 10:56:54;;;;;;;8.73;3.47;;;;;;;11.83;66.24;99151.09;4486415;31;20100;-68
2022/10/21 10:59:22;;;;;;;10.07;3.83;;;;;;;11.99;64.42;99141.91;4488660;31;20096;-67
2022/10/21 11:02:11;;;;;;;24.27;4.20;;;;;;;12.28;64.93;99138.44;4494341;31;20117;-68
2022/10/21 11:04:59;;;;;;;23.05;4.07;;;;;;;12.36;63.53;99133.34;4489761;31;20098;-68
2022/10/21 11:07:29;;;;;;;10.20;3.80;;;;;;;11.89;63.06;99140.06;4484173;31;20126;-67
2022/10/21 11:10:09;;;;;;;7.15;3.15;;;;;;;12.09;62.44;99142.72;4490795;31;20444;-68
2022/10/21 11:12:37;;;;;;;32.70;4.22;;;;;;;12.15;63.16;99136.94;4489128;31;20118;-68
2022/10/21 11:15:11;;;;;;;6.97;3.17;;;;;;;12.12;63.44;99131.94;4490354;31;20152;-67
2022/10/21 11:17:40;;;;;;;11.65;2.95;;;;;;;12.04;62.28;99122.13;4486320;31;20100;-67
2022/10/21 11:20:26;;;;;;;7.10;3.00;;;;;;;12.21;63.57;99136.38;4489464;31;20159;-68
2022/10/21 11:23:05;;;;;;;5.43;3.10;;;;;;;12.07;61.06;99131.56;4490654;31;20461;-68
2022/10/21 11:25:47;;;;;;;23.05;3.58;;;;;;;12.09;62.47;99116.47;4487719;31;20095;-67
2022/10/21 11:28:40;;;;;;;11.35;3.60;;;;;;;12.18;61.48;99120.06;4489403;31;20835;-67
2022/10/21 11:31:29;;;;;;;6.18;3.60;;;;;;;12.32;62.29;99108.31;4486611;31;20155;-67
2022/10/21 11:34:19;;;;;;;15.45;4.22;;;;;;;12.39;62.67;99096.28;4492614;31;20138;-67
2022/10/21 11:37:13;;;;;;;7.03;2.65;;;;;;;12.34;63.12;99098.47;4492425;31;20135;-67
2022/10/21 11:39:46;;;;;;;4.93;3.12;;;;;;;12.28;62.46;99088.53;4486853;31;20461;-67
2022/10/21 11:42:13;;;;;;;8.40;2.65;;;;;;;12.16;61.39;99080.81;4492844;31;20088;-67
2022/10/21 11:45:09;;;;;;;6.35;3.15;;;;;;;12.16;61.58;99069.50;4493153;31;20172;-67
2022/10/21 11:48:14;;;;;;;12.27;3.37;;;;;;;12.04;60.98;99084.56;4492175;31;20138;-68
2022/10/21 11:51:03;;;;;;;17.48;3.15;;;;;;;12.07;62.08;99085.09;4492832;31;20092;-67
2022/10/21 11:53:41;;;;;;;10.98;3.58;;;;;;;12.05;61.74;99071.28;4493141;31;20407;-67
2022/10/21 11:56:37;;;;;;;81.32;8.48;;;;;;;12.07;62.28;99077.22;4492430;31;20088;-67